Time;durP1;ratioP1;P1;durP2;ratioP2;P2;SDS_P1;SDS_P2;PMS_P1;PMS_P2;Temp;Humidity;BMP_temperature;BMP_pressure;BME280_temperature;BME280_humidity;BME280_pressure;Samples;Min_cycle;Max_cycle;Signal;HPM_P1;HPM_P2
2023/08/21 00:02:16;;;;;;;14.25;2.10;;;;;;;21.61;66.63;101774.91;5053197;28;20061;-64
2023/08/21 00:04:43;;;;;;;6.80;1.63;;;;;;;21.67;66.40;101770.66;5052022;28;20476;-64
2023/08/21 00:07:11;;;;;;;8.38;1.95;;;;;;;21.83;65.66;101770.66;5039922;28;20454;-64
2023/08/21 00:09:38;;;;;;;9.95;2.08;;;;;;;21.65;66.21;101772.22;5032831;28;20061;-63
2023/08/21 00:12:06;;;;;;;8.75;1.75;;;;;;;21.50;66.38;101773.81;5050671;28;20056;-62
2023/08/21 00:14:33;;;;;;;7.80;1.58;;;;;;;21.42;66.76;101771.19;5053062;28;20045;-62
2023/08/21 00:17:02;;;;;;;12.82;2.22;;;;;;;21.21;66.92;101769.47;5053121;28;20049;-63
2023/08/21 00:19:30;;;;;;;9.15;1.77;;;;;;;21.23;67.05;101764.31;5051282;28;20052;-63
2023/08/21 00:21:58;;;;;;;14.27;2.00;;;;;;;21.33;66.75;101765.78;5051494;28;20056;-64
2023/08/21 00:24:25;;;;;;;9.25;1.67;;;;;;;21.67;65.66;101764.25;5040050;28;20053;-62
2023/08/21 00:26:52;;;;;;;9.85;1.98;;;;;;;21.85;64.40;101754.28;5040305;28;20045;-63
2023/08/21 00:29:20;;;;;;;9.00;1.70;;;;;;;21.98;64.09;101758.63;5055453;28;20046;-64
2023/08/21 00:31:47;;;;;;;8.70;1.70;;;;;;;22.02;63.83;101756.72;5071833;28;20052;-62
2023/08/21 00:34:15;;;;;;;6.95;1.88;;;;;;;22.14;63.19;101748.19;5058872;28;20415;-62
2023/08/21 00:36:42;;;;;;;8.27;1.63;;;;;;;21.93;63.33;101758.91;5057266;28;20057;-63
2023/08/21 00:39:10;;;;;;;7.78;1.60;;;;;;;21.97;63.44;101745.75;5050154;28;20044;-63
2023/08/21 00:41:37;;;;;;;8.02;1.83;;;;;;;21.84;63.93;101761.09;5055870;28;20053;-62
2023/08/21 00:44:04;;;;;;;9.00;1.60;;;;;;;21.44;65.10;101754.84;5055444;28;20060;-63
2023/08/21 00:46:32;;;;;;;6.93;1.83;;;;;;;21.39;65.36;101752.31;5056696;28;20056;-63
2023/08/21 00:48:59;;;;;;;11.63;1.98;;;;;;;21.58;65.01;101753.22;5055102;28;20041;-64
2023/08/21 00:51:27;;;;;;;9.52;1.77;;;;;;;21.35;65.58;101748.59;5056805;28;20061;-63
2023/08/21 00:53:55;;;;;;;9.45;1.75;;;;;;;21.46;65.26;101744.09;5055421;28;20500;-62
2023/08/21 00:56:22;;;;;;;7.75;1.40;;;;;;;21.66;64.33;101748.59;5050704;28;20049;-63
2023/08/21 00:58:50;;;;;;;12.63;2.15;;;;;;;21.61;64.13;101758.09;5055341;28;20052;-63
2023/08/21 01:01:18;;;;;;;11.60;1.80;;;;;;;21.33;64.29;101762.97;5056426;28;20049;-63
2023/08/21 01:03:46;;;;;;;10.90;1.98;;;;;;;21.35;64.32;101760.63;5022751;28;20048;-64
2023/08/21 01:06:13;;;;;;;11.63;2.10;;;;;;;21.39;64.38;101757.91;5034459;28;20077;-63
2023/08/21 01:09:12;;;;;;;9.13;2.25;;;;;;;21.40;63.75;101770.75;5074585;28;20056;-63
2023/08/21 01:11:46;;;;;;;8.47;1.97;;;;;;;21.22;64.61;101756.25;5053223;28;20056;-63
2023/08/21 01:14:27;;;;;;;7.63;1.52;;;;;;;21.41;64.13;101761.97;5054120;28;20059;-62
2023/08/21 01:16:57;;;;;;;8.73;1.50;;;;;;;21.26;64.95;101765.59;5056221;28;20053;-62
2023/08/21 01:19:36;;;;;;;10.20;2.22;;;;;;;21.47;64.17;101760.53;5054701;28;20041;-64
2023/08/21 01:22:04;;;;;;;5.93;1.38;;;;;;;21.42;63.82;101769.22;5054478;28;20052;-65
2023/08/21 01:24:31;;;;;;;11.35;2.22;;;;;;;21.03;64.34;101756.16;5055813;28;20613;-63
2023/08/21 01:27:00;;;;;;;7.38;1.77;;;;;;;20.96;65.24;101765.16;5038016;28;20049;-64
2023/08/21 01:29:27;;;;;;;7.32;1.67;;;;;;;21.23;64.49;101775.50;5055152;28;20043;-65
2023/08/21 01:32:20;;;;;;;9.73;2.03;;;;;;;21.17;64.63;101768.56;5072019;28;20516;-64
2023/08/21 01:34:49;;;;;;;7.78;1.63;;;;;;;21.48;63.75;101767.75;5047441;28;20072;-67
2023/08/21 01:37:17;;;;;;;8.43;1.95;;;;;;;20.98;65.02;101764.78;5055927;28;20049;-66
2023/08/21 01:39:44;;;;;;;8.85;1.80;;;;;;;21.07;65.12;101765.47;5054371;28;20045;-66
2023/08/21 01:42:11;;;;;;;8.20;1.70;;;;;;;21.17;66.03;101771.38;5053635;28;20087;-66
2023/08/21 01:44:41;;;;;;;8.88;1.58;;;;;;;21.16;66.86;101775.34;5055017;28;20045;-66
2023/08/21 01:47:10;;;;;;;12.10;2.15;;;;;;;21.30;67.02;101777.72;5052493;28;20450;-66
2023/08/21 01:49:37;;;;;;;10.05;2.10;;;;;;;21.19;68.12;101769.03;5054886;28;20050;-65
2023/08/21 01:52:06;;;;;;;9.32;1.48;;;;;;;21.29;67.55;101775.28;5055259;28;20044;-65
2023/08/21 01:54:33;;;;;;;8.73;1.83;;;;;;;21.04;67.91;101767.00;5053839;28;20056;-66
2023/08/21 01:57:00;;;;;;;9.32;1.80;;;;;;;21.24;67.71;101770.72;5054810;28;20049;-66
2023/08/21 01:59:28;;;;;;;9.32;1.92;;;;;;;21.39;66.81;101777.53;5054093;28;20072;-65
2023/08/21 02:01:56;;;;;;;10.95;2.10;;;;;;;21.05;68.23;101770.63;5054335;28;20064;-66
2023/08/21 02:04:24;;;;;;;9.57;1.95;;;;;;;20.77;67.85;101780.97;5038849;28;20052;-65
2023/08/21 02:06:52;;;;;;;14.32;2.28;;;;;;;20.77;69.49;101769.78;5033975;28;20057;-65
2023/08/21 02:09:22;;;;;;;;;;;;;;;21.14;68.41;101771.28;5034409;28;20053;-64
2023/08/21 02:11:49;;;;;;;6.75;2.10;;;;;;;21.10;67.79;101768.38;5051260;28;19928;-67
2023/08/21 02:14:16;;;;;;;11.25;2.13;;;;;;;21.41;67.61;101767.56;5020426;28;20068;-66
2023/08/21 02:16:43;;;;;;;9.70;1.90;;;;;;;21.11;67.65;101775.59;5037073;28;20049;-63
2023/08/21 02:19:11;;;;;;;9.05;1.70;;;;;;;21.43;67.22;101770.03;5054827;28;20053;-64
2023/08/21 02:21:38;;;;;;;7.93;1.75;;;;;;;21.14;67.49;101762.88;5053335;28;20055;-62
2023/08/21 02:24:06;;;;;;;11.38;2.08;;;;;;;21.05;67.40;101762.22;5058791;28;20063;-62
2023/08/21 02:26:33;;;;;;;12.55;2.30;;;;;;;21.07;67.38;101763.50;5052937;28;20461;-64
2023/08/21 02:29:00;;;;;;;12.35;2.30;;;;;;;21.21;66.53;101761.06;5053940;28;20044;-62
2023/08/21 02:31:28;;;;;;;10.73;2.00;;;;;;;21.21;67.36;101763.06;5074999;28;20049;-62
2023/08/21 02:33:55;;;;;;;8.82;2.00;;;;;;;21.07;66.47;101766.28;5024793;28;20053;-62
2023/08/21 02:36:22;;;;;;;13.45;2.45;;;;;;;20.59;67.75;101766.47;5051528;28;20052;-63
2023/08/21 02:38:51;;;;;;;10.25;1.67;;;;;;;20.92;67.83;101758.63;5048102;28;20053;-62
2023/08/21 02:41:18;;;;;;;8.73;1.73;;;;;;;20.79;67.72;101767.44;5036880;28;20060;-63
2023/08/21 02:43:45;;;;;;;8.52;1.92;;;;;;;20.55;67.90;101767.56;5054064;28;20052;-64
2023/08/21 02:46:14;;;;;;;8.40;2.17;;;;;;;20.83;67.65;101779.56;5048372;28;20068;-63
2023/08/21 02:48:41;;;;;;;9.18;2.10;;;;;;;20.87;66.46;101772.88;5034418;28;20045;-64
2023/08/21 02:51:09;;;;;;;14.15;2.08;;;;;;;20.77;66.58;101783.78;5045084;28;20052;-62
2023/08/21 02:53:36;;;;;;;8.57;1.83;;;;;;;20.63;67.06;101774.97;5050929;28;20052;-62
2023/08/21 02:56:03;;;;;;;10.35;2.20;;;;;;;20.98;66.51;101771.25;5053283;28;20053;-63
2023/08/21 02:58:31;;;;;;;8.77;1.60;;;;;;;21.28;65.01;101777.25;5052737;28;20055;-62
2023/08/21 03:00:58;;;;;;;10.20;2.20;;;;;;;21.12;66.09;101768.84;5054153;28;20064;-63
2023/08/21 03:03:26;;;;;;;6.18;1.83;;;;;;;21.01;66.64;101759.31;5054256;28;20060;-63
2023/08/21 03:05:53;;;;;;;16.63;9.30;;;;;;;21.11;66.43;101750.38;5053797;28;20536;-63
2023/08/21 03:08:21;;;;;;;9.30;1.90;;;;;;;20.92;67.00;101758.63;5053656;28;20052;-64
2023/08/21 03:10:48;;;;;;;13.35;2.00;;;;;;;20.97;66.92;101751.97;5040639;28;20049;-62
2023/08/21 03:13:15;;;;;;;9.98;2.05;;;;;;;20.69;67.39;101768.78;5033978;28;20049;-62
2023/08/21 03:15:46;;;;;;;13.68;2.30;;;;;;;20.91;67.08;101773.00;5033849;28;20049;-63
2023/08/21 03:18:14;;;;;;;11.05;2.33;;;;;;;21.06;67.63;101777.88;5034076;28;20536;-64
2023/08/21 03:20:45;;;;;;;10.10;2.28;;;;;;;21.23;66.43;101777.53;5021231;28;20144;-63
2023/08/21 03:23:13;;;;;;;13.38;2.25;;;;;;;21.21;66.37;101768.66;5052295;28;20052;-63
2023/08/21 03:25:41;;;;;;;10.35;2.22;;;;;;;21.08;66.13;101764.28;5053955;28;20056;-63
2023/08/21 03:28:09;;;;;;;8.25;2.28;;;;;;;21.06;66.10;101775.84;5049061;28;20044;-63
2023/08/21 03:30:39;;;;;;;10.68;2.33;;;;;;;21.18;66.11;101775.78;5058962;28;20389;-63
2023/08/21 03:33:08;;;;;;;;;;;;;;;21.20;66.12;101776.25;5058477;28;20055;-62
2023/08/21 03:35:35;;;;;;;7.57;1.73;;;;;;;21.07;66.62;101783.09;5061324;28;20517;-63
2023/08/21 03:38:02;;;;;;;6.00;1.63;;;;;;;20.95;66.59;101774.75;5051613;28;20444;-63
2023/08/21 03:40:39;;;;;;;9.85;2.10;;;;;;;20.76;67.46;101770.97;5051946;28;20045;-63
2023/08/21 03:43:06;;;;;;;8.55;2.05;;;;;;;20.63;67.95;101783.38;5034850;28;20049;-63
2023/08/21 03:45:34;;;;;;;10.45;1.83;;;;;;;20.39;68.81;101780.66;5053065;28;20067;-63
2023/08/21 03:48:03;;;;;;;10.48;2.08;;;;;;;20.50;69.20;101779.81;5036221;28;20400;-63
2023/08/21 03:50:30;;;;;;;8.05;1.88;;;;;;;20.54;69.23;101785.53;5054147;28;20052;-63
2023/08/21 03:52:58;;;;;;;8.02;2.38;;;;;;;20.43;70.79;101782.41;5052481;28;20053;-63
2023/08/21 03:55:25;;;;;;;8.63;2.28;;;;;;;20.60;69.88;101784.91;5051758;28;20060;-63
2023/08/21 03:57:52;;;;;;;12.98;2.30;;;;;;;20.61;69.59;101775.34;5030917;28;20064;-62
2023/08/21 04:00:21;;;;;;;10.10;2.17;;;;;;;20.39;70.28;101775.06;5034633;28;20487;-63
2023/08/21 04:02:50;;;;;;;10.23;2.25;;;;;;;20.32;70.61;101777.63;5034587;28;20041;-64
2023/08/21 04:05:17;;;;;;;11.20;2.42;;;;;;;20.38;70.85;101779.03;5052259;28;20060;-63
2023/08/21 04:07:45;;;;;;;7.30;1.83;;;;;;;20.63;69.46;101780.56;5034136;28;20069;-64
2023/08/21 04:10:12;;;;;;;9.27;2.20;;;;;;;20.21;70.90;101774.50;5031115;28;20058;-65
2023/08/21 04:12:39;;;;;;;11.73;2.28;;;;;;;20.20;71.39;101777.66;5032201;28;20049;-64
2023/08/21 04:15:08;;;;;;;9.40;2.42;;;;;;;20.06;71.96;101784.44;5039054;28;20060;-63
2023/08/21 04:17:37;;;;;;;12.70;2.10;;;;;;;19.91;73.06;101778.75;5025831;28;20637;-63
2023/08/21 04:20:05;;;;;;;11.15;2.38;;;;;;;19.92;73.58;101780.34;5032850;28;20056;-64
2023/08/21 04:22:34;;;;;;;9.90;1.98;;;;;;;20.02;72.53;101777.91;5053096;28;20044;-65
2023/08/21 04:25:01;;;;;;;11.77;2.33;;;;;;;20.16;71.85;101780.34;5052640;28;20053;-64
2023/08/21 04:27:28;;;;;;;9.50;2.20;;;;;;;20.00;72.31;101776.59;5052684;28;20053;-64
2023/08/21 04:29:56;;;;;;;13.02;2.03;;;;;;;20.00;72.76;101788.63;5059710;28;20044;-62
2023/08/21 04:32:23;;;;;;;8.13;2.28;;;;;;;20.02;72.56;101789.09;5068352;28;20052;-64
2023/08/21 04:34:51;;;;;;;10.68;2.53;;;;;;;19.84;73.75;101796.06;5048323;28;20060;-65
2023/08/21 04:37:18;;;;;;;10.05;2.05;;;;;;;19.72;73.88;101798.03;5051350;28;20056;-63
2023/08/21 04:39:51;;;;;;;12.18;2.15;;;;;;;19.77;73.93;101798.63;5050887;28;20064;-63
2023/08/21 04:42:18;;;;;;;11.48;2.50;;;;;;;19.80;74.11;101800.75;5051259;28;20053;-64
2023/08/21 04:44:46;;;;;;;10.32;2.58;;;;;;;19.99;73.77;101809.38;5051688;28;20052;-64
2023/08/21 04:47:23;;;;;;;6.80;1.80;;;;;;;20.04;72.78;101811.94;5035474;28;20157;-65
2023/08/21 04:49:55;;;;;;;9.20;2.38;;;;;;;19.85;74.24;101813.69;5047469;28;20057;-64
2023/08/21 04:52:23;;;;;;;9.25;2.05;;;;;;;19.72;74.87;101807.25;5051381;28;20048;-65
2023/08/21 04:54:53;;;;;;;9.75;2.47;;;;;;;19.57;75.54;101812.72;5053024;28;20064;-64
2023/08/21 04:57:21;;;;;;;11.52;2.55;;;;;;;19.63;75.19;101809.34;5051686;28;20063;-64
2023/08/21 04:59:48;;;;;;;16.83;2.95;;;;;;;19.48;76.48;101814.78;5050849;28;20044;-63
2023/08/21 05:02:18;;;;;;;7.53;2.08;;;;;;;19.64;75.25;101812.97;5051163;28;20059;-65
2023/08/21 05:04:45;;;;;;;11.10;2.45;;;;;;;19.70;76.58;101814.38;5050314;28;20049;-63
2023/08/21 05:07:13;;;;;;;11.35;2.53;;;;;;;19.57;75.61;101815.50;5031164;28;20053;-64
2023/08/21 05:09:40;;;;;;;11.25;2.80;;;;;;;19.33;77.01;101823.84;5031965;28;20062;-63
2023/08/21 05:12:10;;;;;;;10.85;2.55;;;;;;;19.22;77.52;101829.03;5031719;28;20045;-65
2023/08/21 05:14:37;;;;;;;13.20;2.53;;;;;;;19.33;77.24;101837.81;5031457;28;20088;-65
2023/08/21 05:17:05;;;;;;;15.27;2.70;;;;;;;19.29;77.64;101834.06;5033030;28;20041;-68
2023/08/21 05:19:32;;;;;;;11.75;2.60;;;;;;;19.21;78.00;101824.63;5031690;28;20053;-63
2023/08/21 05:22:00;;;;;;;10.50;2.28;;;;;;;19.36;78.03;101825.94;5042187;28;20040;-63
2023/08/21 05:24:30;;;;;;;11.63;2.22;;;;;;;19.66;75.70;101831.03;5042710;28;20053;-64
2023/08/21 05:27:04;;;;;;;9.02;2.53;;;;;;;19.44;76.47;101837.03;5043956;28;20045;-63
2023/08/21 05:29:32;;;;;;;11.95;2.63;;;;;;;19.19;78.33;101826.13;5059046;28;20070;-67
2023/08/21 05:32:00;;;;;;;14.45;2.72;;;;;;;19.35;78.66;101829.91;5074624;28;20036;-65
2023/08/21 05:34:28;;;;;;;11.85;2.35;;;;;;;19.25;78.58;101830.34;5058279;28;20056;-63
2023/08/21 05:36:56;;;;;;;11.50;2.42;;;;;;;19.37;78.30;101833.97;5054673;28;20040;-63
2023/08/21 05:39:23;;;;;;;9.30;2.00;;;;;;;19.32;77.91;101837.00;5050177;28;20045;-64
2023/08/21 05:41:51;;;;;;;11.95;2.60;;;;;;;19.14;79.36;101838.34;5054565;28;20132;-64
2023/08/21 05:44:19;;;;;;;10.93;2.40;;;;;;;19.21;79.19;101832.19;5037848;28;20048;-67
2023/08/21 05:46:47;;;;;;;11.95;2.63;;;;;;;19.39;77.82;101839.22;5054299;28;20052;-63
2023/08/21 05:49:15;;;;;;;9.63;2.13;;;;;;;19.40;77.26;101838.06;5054506;28;20049;-64
2023/08/21 05:51:42;;;;;;;13.30;2.95;;;;;;;19.21;78.40;101837.75;5037373;28;20060;-63
2023/08/21 05:54:10;;;;;;;10.27;2.20;;;;;;;19.12;78.83;101834.22;5040246;28;20056;-63
2023/08/21 05:56:39;;;;;;;11.15;2.47;;;;;;;19.11;78.86;101838.19;5044821;28;20049;-63
2023/08/21 05:59:10;;;;;;;9.90;2.60;;;;;;;19.17;79.18;101839.59;5053955;28;20052;-65
2023/08/21 06:01:37;;;;;;;8.15;2.30;;;;;;;19.46;77.93;101840.31;5053514;28;20049;-63
2023/08/21 06:04:05;;;;;;;10.15;3.10;;;;;;;19.38;77.51;101843.19;5037687;28;20049;-65
2023/08/21 06:06:42;;;;;;;8.63;2.17;;;;;;;19.09;79.15;101846.91;5054207;28;20419;-69
2023/08/21 06:09:11;;;;;;;14.90;2.95;;;;;;;19.39;77.55;101842.84;5055332;28;20404;-66
2023/08/21 06:11:39;;;;;;;15.55;2.50;;;;;;;19.51;77.18;101842.88;5053544;28;20448;-68
2023/08/21 06:14:07;;;;;;;15.95;3.28;;;;;;;19.72;76.60;101840.81;5037338;28;20526;-66
2023/08/21 06:16:34;;;;;;;16.10;2.58;;;;;;;19.39;76.58;101839.22;5035420;28;20050;-65
2023/08/21 06:19:02;;;;;;;8.05;2.03;;;;;;;19.41;77.04;101848.09;5034131;28;20462;-65
2023/08/21 06:21:30;;;;;;;13.52;2.75;;;;;;;19.54;76.30;101847.78;5046100;28;20041;-65
2023/08/21 06:23:57;;;;;;;13.55;2.55;;;;;;;19.58;76.49;101842.31;5053750;28;20049;-65
2023/08/21 06:26:25;;;;;;;11.07;2.30;;;;;;;19.40;76.72;101852.88;5052996;28;20049;-63
2023/08/21 06:28:52;;;;;;;11.00;2.70;;;;;;;19.76;75.69;101850.13;5049132;28;20065;-64
2023/08/21 06:31:20;;;;;;;12.75;2.90;;;;;;;19.62;75.36;101857.22;5072840;28;20056;-64
2023/08/21 06:33:49;;;;;;;16.02;2.80;;;;;;;19.66;75.60;101850.59;5044703;28;20052;-64
2023/08/21 06:36:17;;;;;;;8.30;1.90;;;;;;;19.76;74.98;101857.72;5053097;28;20053;-65
2023/08/21 06:38:44;;;;;;;13.57;2.85;;;;;;;19.74;74.72;101858.06;5037077;28;20057;-62
2023/08/21 06:41:12;;;;;;;9.43;2.40;;;;;;;19.63;75.20;101847.69;5053162;28;20668;-63
2023/08/21 06:43:41;;;;;;;12.23;2.58;;;;;;;20.05;74.13;101841.53;5052976;28;20040;-63
2023/08/21 06:46:14;;;;;;;13.48;2.50;;;;;;;19.86;73.63;101858.06;5041699;28;20535;-63
2023/08/21 06:48:42;;;;;;;9.00;2.03;;;;;;;19.86;74.79;101852.47;5054490;28;20057;-62
2023/08/21 06:51:10;;;;;;;13.23;2.53;;;;;;;19.90;73.78;101861.81;5053770;28;20045;-63
2023/08/21 06:53:38;;;;;;;12.55;2.47;;;;;;;19.76;74.13;101864.13;5053426;28;20049;-64
2023/08/21 06:56:06;;;;;;;11.25;2.47;;;;;;;20.03;73.59;101863.44;5052260;28;20049;-64
2023/08/21 06:58:33;;;;;;;11.20;2.63;;;;;;;20.18;72.14;101856.34;5054116;28;20056;-64
2023/08/21 07:01:01;;;;;;;10.82;2.50;;;;;;;20.22;71.50;101856.47;5049638;28;20484;-65
2023/08/21 07:03:31;;;;;;;9.65;1.98;;;;;;;20.45;70.57;101864.00;5054257;28;20045;-64
2023/08/21 07:06:00;;;;;;;12.75;2.10;;;;;;;20.20;70.99;101847.59;5054506;28;20554;-63
2023/08/21 07:08:28;;;;;;;9.48;2.28;;;;;;;20.29;70.71;101856.69;5053016;28;20053;-63
2023/08/21 07:10:56;;;;;;;10.20;2.20;;;;;;;20.33;70.30;101854.84;5032130;28;20049;-63
2023/08/21 07:13:23;;;;;;;7.82;1.88;;;;;;;20.60;68.75;101842.88;5036654;28;20076;-63
2023/08/21 07:15:52;;;;;;;9.70;2.55;;;;;;;20.53;68.43;101851.06;5052780;28;20492;-65
2023/08/21 07:18:20;;;;;;;11.13;2.10;;;;;;;20.52;68.03;101852.25;5042806;28;20064;-64
2023/08/21 07:20:47;;;;;;;12.27;2.58;;;;;;;20.46;68.19;101846.06;5042435;28;20440;-61
2023/08/21 07:23:15;;;;;;;8.43;2.03;;;;;;;20.84;68.23;101852.03;5046594;28;20051;-63
2023/08/21 07:25:42;;;;;;;11.23;2.15;;;;;;;21.05;66.76;101852.69;5045138;28;20405;-63
2023/08/21 07:28:10;;;;;;;13.20;2.40;;;;;;;21.03;66.19;101851.41;5031067;28;20075;-61
2023/08/21 07:30:41;;;;;;;13.80;2.28;;;;;;;21.05;64.77;101855.50;5062371;28;20056;-63
2023/08/21 07:33:09;;;;;;;10.45;2.15;;;;;;;21.48;64.48;101865.88;5069783;28;20040;-64
2023/08/21 07:35:36;;;;;;;16.85;2.63;;;;;;;21.80;63.60;101861.97;5030711;28;20046;-63
2023/08/21 07:38:03;;;;;;;13.15;2.25;;;;;;;21.68;63.16;101859.22;5047312;28;20056;-64
2023/08/21 07:40:31;;;;;;;13.30;2.50;;;;;;;21.69;63.29;101860.06;5037280;28;20048;-63
2023/08/21 07:42:59;;;;;;;11.43;1.98;;;;;;;21.84;62.32;101865.69;5044410;28;20049;-64
2023/08/21 07:45:27;;;;;;;11.35;2.35;;;;;;;22.23;61.04;101856.25;5052349;28;20049;-62
2023/08/21 07:47:55;;;;;;;7.53;1.85;;;;;;;22.11;57.81;101861.13;5049020;28;20069;-63
2023/08/21 07:50:40;;;;;;;10.98;2.00;;;;;;;21.98;57.55;101868.03;5049894;28;20175;-63
2023/08/21 07:53:07;;;;;;;8.00;2.03;;;;;;;22.02;58.82;101868.97;5049901;28;20056;-63
2023/08/21 07:55:35;;;;;;;9.45;1.63;;;;;;;22.08;57.82;101868.31;5035060;28;20045;-62
2023/08/21 07:58:04;;;;;;;9.20;1.50;;;;;;;21.92;56.48;101872.28;5050736;28;20057;-61
2023/08/21 08:00:31;;;;;;;14.13;1.80;;;;;;;21.90;56.55;101867.03;5057638;28;20044;-60
2023/08/21 08:02:59;;;;;;;10.55;1.83;;;;;;;21.65;56.86;101865.56;5068517;28;20563;-60
2023/08/21 08:05:26;;;;;;;7.18;1.92;;;;;;;21.68;57.78;101872.44;5068168;28;20055;-62
2023/08/21 08:07:54;;;;;;;18.20;2.65;;;;;;;22.10;56.90;101867.94;5063233;28;20510;-61
2023/08/21 08:10:21;;;;;;;13.35;2.72;;;;;;;21.81;58.81;101868.41;5072247;28;20052;-62
2023/08/21 08:12:48;;;;;;;12.85;2.13;;;;;;;21.68;59.19;101876.06;5072309;28;20053;-61
2023/08/21 08:15:17;;;;;;;11.80;1.50;;;;;;;21.51;59.86;101862.38;5059493;28;20087;-61
2023/08/21 08:17:45;;;;;;;7.38;1.58;;;;;;;21.99;58.26;101869.66;5064765;28;20049;-63
2023/08/21 08:20:13;;;;;;;8.95;1.80;;;;;;;22.22;58.12;101865.03;5064456;28;20056;-61
2023/08/21 08:22:41;;;;;;;10.40;1.70;;;;;;;22.07;56.42;101871.50;5049879;28;20071;-62
2023/08/21 08:25:08;;;;;;;10.20;1.63;;;;;;;22.10;55.32;101871.56;5045096;28;20060;-62
2023/08/21 08:27:36;;;;;;;7.32;1.60;;;;;;;22.18;54.88;101870.56;5071967;28;20685;-60
2023/08/21 08:30:04;;;;;;;7.63;1.77;;;;;;;22.34;54.96;101864.91;5064327;28;20527;-61
2023/08/21 08:32:31;;;;;;;6.43;1.35;;;;;;;22.39;53.75;101881.47;5067267;28;20040;-60
2023/08/21 08:34:59;;;;;;;13.43;1.80;;;;;;;22.43;54.59;101876.78;5056186;28;20625;-60
2023/08/21 08:37:26;;;;;;;11.43;1.70;;;;;;;22.43;53.75;101865.53;5045618;28;20072;-62
2023/08/21 08:39:54;;;;;;;6.88;1.40;;;;;;;22.60;53.51;101864.34;5060221;28;20040;-61
2023/08/21 08:42:22;;;;;;;8.20;1.42;;;;;;;22.61;54.17;101861.19;5060131;28;20551;-62
2023/08/21 08:44:49;;;;;;;6.82;1.48;;;;;;;22.76;53.85;101851.88;5061559;28;20407;-62
2023/08/21 08:47:17;;;;;;;13.38;1.27;;;;;;;22.97;53.34;101852.34;5054053;28;20081;-61
2023/08/21 08:49:46;;;;;;;6.45;1.48;;;;;;;23.00;53.10;101847.94;5058328;28;20515;-61
2023/08/21 08:52:15;;;;;;;10.65;2.13;;;;;;;23.20;53.12;101853.22;5053269;28;20041;-61
2023/08/21 08:54:43;;;;;;;9.32;1.25;;;;;;;22.70;53.54;101836.47;5043041;28;20041;-61
2023/08/21 08:57:10;;;;;;;5.57;1.67;;;;;;;22.42;53.99;101851.88;5048542;28;20057;-61
2023/08/21 08:59:38;;;;;;;11.50;2.05;;;;;;;22.76;53.37;101854.69;5053357;28;20419;-61
2023/08/21 09:02:05;;;;;;;8.65;1.55;;;;;;;22.78;53.43;101857.94;5056722;28;20052;-60
2023/08/21 09:04:33;;;;;;;8.38;1.25;;;;;;;22.93;53.30;101859.88;5050935;28;20057;-60
2023/08/21 09:07:10;;;;;;;8.57;1.48;;;;;;;23.08;53.25;101849.75;5060376;28;20053;-60
2023/08/21 09:09:44;;;;;;;10.35;2.17;;;;;;;22.99;52.93;101858.41;5019557;28;20053;-62
2023/08/21 09:12:13;;;;;;;9.38;1.90;;;;;;;23.07;52.36;101848.09;5054605;28;20400;-62
2023/08/21 09:14:42;;;;;;;7.78;1.60;;;;;;;23.04;51.81;101843.22;5056076;28;20052;-60
2023/08/21 09:17:09;;;;;;;9.98;1.85;;;;;;;22.93;52.94;101842.19;5045210;28;20060;-61
2023/08/21 09:19:37;;;;;;;6.70;1.45;;;;;;;23.16;51.34;101831.81;5055940;28;20570;-64
2023/08/21 09:22:09;;;;;;;11.02;2.45;;;;;;;23.31;51.90;101836.56;5058956;28;20127;-61
2023/08/21 09:24:38;;;;;;;10.65;1.80;;;;;;;23.11;52.23;101837.75;5054921;28;20532;-63
2023/08/21 09:27:26;;;;;;;7.00;1.70;;;;;;;23.32;52.63;101843.81;5050660;28;20049;-60
2023/08/21 09:29:53;;;;;;;11.32;1.88;;;;;;;23.36;52.72;101833.47;5050626;28;20045;-61
2023/08/21 09:32:21;;;;;;;6.80;1.60;;;;;;;23.40;52.51;101835.16;5053933;28;20052;-62
2023/08/21 09:34:52;;;;;;;12.27;1.90;;;;;;;23.70;52.89;101826.03;5059412;28;20041;-61
2023/08/21 09:37:19;;;;;;;11.40;1.60;;;;;;;23.66;52.06;101827.97;5055759;28;20045;-63
2023/08/21 09:39:46;;;;;;;7.22;1.55;;;;;;;23.26;52.49;101831.22;5062398;28;20061;-62
2023/08/21 09:42:14;;;;;;;8.68;1.98;;;;;;;23.26;53.02;101836.84;5033079;28;20064;-60
2023/08/21 09:44:43;;;;;;;8.75;2.00;;;;;;;23.26;53.50;101831.22;5052921;28;20049;-62
2023/08/21 09:47:11;;;;;;;10.00;1.85;;;;;;;23.09;53.65;101832.50;5051922;28;20049;-61
2023/08/21 09:49:39;;;;;;;7.70;1.63;;;;;;;23.17;53.55;101836.28;5055894;28;20060;-60
2023/08/21 09:52:10;;;;;;;7.43;1.58;;;;;;;23.22;53.08;101833.94;5065440;28;20045;-60
2023/08/21 09:54:41;;;;;;;9.48;1.67;;;;;;;23.68;52.75;101823.59;5071254;28;20067;-62
2023/08/21 09:57:09;;;;;;;198.02;81.22;;;;;;;23.52;53.01;101820.09;5074009;28;20048;-61
2023/08/21 09:59:39;;;;;;;68.82;28.98;;;;;;;23.38;53.92;101825.44;5073664;28;20067;-60
2023/08/21 10:02:09;;;;;;;88.55;36.42;;;;;;;23.40;53.88;101825.88;5064689;28;20044;-60
2023/08/21 10:04:37;;;;;;;35.90;11.13;;;;;;;23.30;54.71;101823.69;5072193;28;20052;-61
2023/08/21 10:07:05;;;;;;;66.57;28.05;;;;;;;23.43;55.08;101827.97;5066838;28;20048;-61
2023/08/21 10:09:33;;;;;;;37.83;13.27;;;;;;;23.27;54.89;101827.22;5068436;28;20604;-61
2023/08/21 10:12:02;;;;;;;39.53;16.00;;;;;;;23.63;55.28;101832.34;5069023;28;20052;-63
2023/08/21 10:14:29;;;;;;;26.52;10.23;;;;;;;23.75;53.24;101820.06;5069361;28;20059;-61
2023/08/21 10:16:57;;;;;;;12.38;3.67;;;;;;;23.75;53.11;101820.06;5064385;28;20053;-61
2023/08/21 10:19:30;;;;;;;17.65;5.03;;;;;;;23.88;52.00;101815.91;5056995;28;20056;-62
2023/08/21 10:21:59;;;;;;;20.15;6.80;;;;;;;23.80;53.00;101812.13;5064998;28;20423;-61
2023/08/21 10:24:30;;;;;;;16.15;5.22;;;;;;;23.91;52.67;101803.88;5070278;28;20053;-61
2023/08/21 10:26:59;;;;;;;14.00;3.65;;;;;;;23.94;52.15;101806.75;5058815;28;20063;-63
2023/08/21 10:29:27;;;;;;;10.68;2.70;;;;;;;23.96;51.30;101801.56;5042590;28;20049;-61
2023/08/21 10:32:02;;;;;;;19.80;5.32;;;;;;;24.13;51.31;101806.69;5063158;28;20048;-63
2023/08/21 10:34:40;;;;;;;13.95;5.00;;;;;;;24.42;51.77;101797.47;5066887;28;20044;-62
2023/08/21 10:37:12;;;;;;;15.85;3.95;;;;;;;24.68;50.03;101790.16;5059765;28;20435;-62
2023/08/21 10:39:55;;;;;;;10.38;2.60;;;;;;;24.47;50.61;101788.69;5064851;28;20056;-62
2023/08/21 10:42:40;;;;;;;14.43;2.58;;;;;;;24.60;50.37;101792.03;5047918;28;20052;-62
2023/08/21 10:45:12;;;;;;;10.20;2.53;;;;;;;24.71;48.89;101781.78;5060394;28;20049;-62
2023/08/21 10:47:46;;;;;;;9.75;2.55;;;;;;;24.62;49.54;101786.84;5063903;28;20057;-62
2023/08/21 10:50:14;;;;;;;7.38;2.00;;;;;;;24.38;49.83;101776.88;5053658;28;20121;-64
2023/08/21 10:52:46;;;;;;;9.48;2.03;;;;;;;24.26;51.60;101779.94;5055075;28;20436;-63
2023/08/21 10:55:15;;;;;;;13.73;2.40;;;;;;;24.53;50.37;101773.06;5071816;28;21103;-64
2023/08/21 10:57:42;;;;;;;9.90;2.13;;;;;;;24.66;48.93;101764.34;5064170;28;20047;-61
2023/08/21 11:00:17;;;;;;;8.38;2.00;;;;;;;24.71;49.08;101776.13;5061450;28;20055;-62
2023/08/21 11:02:46;;;;;;;8.10;1.80;;;;;;;24.32;48.48;101769.16;5064064;28;20060;-70
2023/08/21 11:05:14;;;;;;;12.77;1.88;;;;;;;24.37;49.28;101766.00;5053620;28;20056;-62
2023/08/21 11:07:46;;;;;;;8.85;1.88;;;;;;;24.76;48.31;101766.53;5055500;28;20515;-61
2023/08/21 11:10:29;;;;;;;5.82;1.30;;;;;;;24.32;47.74;101766.34;5058314;28;20045;-62
2023/08/21 11:12:59;;;;;;;7.60;1.73;;;;;;;24.48;48.11;101770.56;5064248;28;20052;-63
2023/08/21 11:15:28;;;;;;;6.60;1.75;;;;;;;24.66;47.26;101770.81;5041438;28;20056;-63
2023/08/21 11:18:02;;;;;;;10.63;2.10;;;;;;;24.94;46.83;101761.91;5059197;28;20052;-65
2023/08/21 11:20:32;;;;;;;5.70;1.60;;;;;;;24.81;47.44;101757.75;5067819;28;20049;-64
2023/08/21 11:23:02;;;;;;;10.02;2.45;;;;;;;24.80;47.23;101761.75;5050492;28;20056;-62
2023/08/21 11:25:30;;;;;;;8.45;2.00;;;;;;;25.17;47.06;101757.75;5037082;28;20047;-63
2023/08/21 11:27:58;;;;;;;10.65;1.95;;;;;;;25.11;46.62;101761.28;5055307;28;20045;-60
2023/08/21 11:30:25;;;;;;;9.98;1.88;;;;;;;25.13;46.88;101754.06;5046665;28;20053;-60